sensor_id;sensor_type;location;lat;lon;timestamp;pressure;altitude;pressure_sealevel;temperature;humidity
26807;BME280;14380;49.910;6.792;2023-02-03T00:01:02;99996.59;;;7.76;100.00
26807;BME280;14380;49.910;6.792;2023-02-03T00:03:28;99992.75;;;7.91;100.00
26807;BME280;14380;49.910;6.792;2023-02-03T00:05:56;99989.47;;;7.81;100.00
26807;BME280;14380;49.910;6.792;2023-02-03T00:08:23;99981.59;;;7.81;100.00
26807;BME280;14380;49.910;6.792;2023-02-03T00:10:49;99988.19;;;7.62;100.00
26807;BME280;14380;49.910;6.792;2023-02-03T00:13:16;99987.47;;;7.91;100.00
26807;BME280;14380;49.910;6.792;2023-02-03T00:15:43;99989.13;;;7.95;100.00
26807;BME280;14380;49.910;6.792;2023-02-03T00:18:09;99994.69;;;7.83;100.00
26807;BME280;14380;49.910;6.792;2023-02-03T00:20:36;100007.69;;;7.89;100.00
26807;BME280;14380;49.910;6.792;2023-02-03T00:23:05;99995.50;;;7.85;100.00
26807;BME280;14380;49.910;6.792;2023-02-03T00:25:31;99982.16;;;7.94;100.00
26807;BME280;14380;49.910;6.792;2023-02-03T00:27:58;99972.59;;;7.90;100.00
26807;BME280;14380;49.910;6.792;2023-02-03T00:30:25;99973.66;;;7.83;100.00
26807;BME280;14380;49.910;6.792;2023-02-03T00:32:51;99976.91;;;7.56;100.00
26807;BME280;14380;49.910;6.792;2023-02-03T00:35:18;99985.53;;;7.62;100.00
26807;BME280;14380;49.910;6.792;2023-02-03T00:37:49;99989.56;;;7.78;100.00
26807;BME280;14380;49.910;6.792;2023-02-03T00:40:18;99978.75;;;7.91;100.00
26807;BME280;14380;49.910;6.792;2023-02-03T00:42:44;99977.91;;;7.88;100.00
26807;BME280;14380;49.910;6.792;2023-02-03T00:45:11;99970.94;;;7.87;100.00
26807;BME280;14380;49.910;6.792;2023-02-03T00:47:37;99975.56;;;7.76;100.00
26807;BME280;14380;49.910;6.792;2023-02-03T00:50:04;99974.56;;;7.82;100.00
26807;BME280;14380;49.910;6.792;2023-02-03T00:52:31;99959.75;;;7.78;100.00
26807;BME280;14380;49.910;6.792;2023-02-03T00:54:58;99966.03;;;7.72;100.00
26807;BME280;14380;49.910;6.792;2023-02-03T00:57:26;99962.44;;;7.74;100.00
26807;BME280;14380;49.910;6.792;2023-02-03T00:59:52;99953.66;;;7.76;100.00
26807;BME280;14380;49.910;6.792;2023-02-03T01:02:20;99952.97;;;7.69;100.00
26807;BME280;14380;49.910;6.792;2023-02-03T01:04:47;99941.25;;;7.82;100.00
26807;BME280;14380;49.910;6.792;2023-02-03T01:07:13;99930.69;;;7.84;100.00
26807;BME280;14380;49.910;6.792;2023-02-03T01:09:40;99916.34;;;7.61;100.00
26807;BME280;14380;49.910;6.792;2023-02-03T01:12:07;99904.41;;;7.48;100.00
26807;BME280;14380;49.910;6.792;2023-02-03T01:14:35;99886.63;;;7.57;100.00
26807;BME280;14380;49.910;6.792;2023-02-03T01:17:01;99887.81;;;7.46;100.00
26807;BME280;14380;49.910;6.792;2023-02-03T01:19:28;99889.25;;;7.59;100.00
26807;BME280;14380;49.910;6.792;2023-02-03T01:21:54;99908.34;;;7.66;100.00
26807;BME280;14380;49.910;6.792;2023-02-03T01:24:20;99912.09;;;7.92;100.00
26807;BME280;14380;49.910;6.792;2023-02-03T01:26:47;99909.47;;;7.55;100.00
26807;BME280;14380;49.910;6.792;2023-02-03T01:29:13;99923.56;;;7.51;100.00
26807;BME280;14380;49.910;6.792;2023-02-03T01:31:41;99912.84;;;7.61;100.00
26807;BME280;14380;49.910;6.792;2023-02-03T01:34:11;99918.91;;;7.64;100.00
26807;BME280;14380;49.910;6.792;2023-02-03T01:36:38;99901.50;;;7.60;100.00
26807;BME280;14380;49.910;6.792;2023-02-03T01:39:05;99895.88;;;7.38;100.00
26807;BME280;14380;49.910;6.792;2023-02-03T01:41:33;99891.47;;;7.74;100.00
26807;BME280;14380;49.910;6.792;2023-02-03T01:44:01;99889.81;;;7.72;100.00
26807;BME280;14380;49.910;6.792;2023-02-03T01:46:50;99895.13;;;7.69;100.00
26807;BME280;14380;49.910;6.792;2023-02-03T01:49:19;99894.91;;;7.78;100.00
26807;BME280;14380;49.910;6.792;2023-02-03T01:51:48;99894.44;;;7.62;100.00
26807;BME280;14380;49.910;6.792;2023-02-03T01:54:17;99896.19;;;7.62;100.00
26807;BME280;14380;49.910;6.792;2023-02-03T01:56:50;99895.25;;;7.64;100.00
26807;BME280;14380;49.910;6.792;2023-02-03T01:59:32;99894.88;;;7.43;100.00
26807;BME280;14380;49.910;6.792;2023-02-03T02:02:00;99887.59;;;7.55;100.00
26807;BME280;14380;49.910;6.792;2023-02-03T02:04:33;99878.50;;;7.68;100.00
26807;BME280;14380;49.910;6.792;2023-02-03T02:07:02;99877.25;;;7.83;100.00
26807;BME280;14380;49.910;6.792;2023-02-03T02:09:29;99878.25;;;7.78;100.00
26807;BME280;14380;49.910;6.792;2023-02-03T02:11:55;99889.09;;;7.65;100.00
26807;BME280;14380;49.910;6.792;2023-02-03T02:14:22;99888.06;;;7.72;100.00
26807;BME280;14380;49.910;6.792;2023-02-03T02:16:55;99892.56;;;7.67;100.00
26807;BME280;14380;49.910;6.792;2023-02-03T02:19:42;99886.72;;;7.54;100.00
26807;BME280;14380;49.910;6.792;2023-02-03T02:22:18;99887.47;;;7.59;100.00
26807;BME280;14380;49.910;6.792;2023-02-03T02:28:29;99906.13;;;7.50;100.00
26807;BME280;14380;49.910;6.792;2023-02-03T02:34:24;99917.06;;;7.68;100.00
26807;BME280;14380;49.910;6.792;2023-02-03T02:37:01;99925.41;;;7.85;100.00
26807;BME280;14380;49.910;6.792;2023-02-03T02:39:36;99920.22;;;7.82;100.00
26807;BME280;14380;49.910;6.792;2023-02-03T02:42:07;99920.28;;;7.79;100.00
26807;BME280;14380;49.910;6.792;2023-02-03T02:44:40;99919.47;;;7.77;100.00
26807;BME280;14380;49.910;6.792;2023-02-03T02:47:13;99940.91;;;7.60;100.00
26807;BME280;14380;49.910;6.792;2023-02-03T02:49:47;99931.31;;;7.57;100.00
26807;BME280;14380;49.910;6.792;2023-02-03T02:52:17;99927.56;;;7.68;100.00
26807;BME280;14380;49.910;6.792;2023-02-03T02:54:47;99920.84;;;7.56;100.00
26807;BME280;14380;49.910;6.792;2023-02-03T02:57:17;99914.84;;;7.87;100.00
26807;BME280;14380;49.910;6.792;2023-02-03T02:59:45;99923.38;;;7.61;100.00
26807;BME280;14380;49.910;6.792;2023-02-03T03:02:12;99926.59;;;7.72;100.00
26807;BME280;14380;49.910;6.792;2023-02-03T03:04:39;99915.31;;;7.68;100.00
26807;BME280;14380;49.910;6.792;2023-02-03T03:07:12;99925.78;;;7.70;100.00
26807;BME280;14380;49.910;6.792;2023-02-03T03:09:42;99906.63;;;7.99;100.00
26807;BME280;14380;49.910;6.792;2023-02-03T03:12:14;99907.91;;;7.84;100.00
26807;BME280;14380;49.910;6.792;2023-02-03T03:14:45;99894.38;;;7.64;100.00
26807;BME280;14380;49.910;6.792;2023-02-03T03:17:16;99883.59;;;7.74;100.00
26807;BME280;14380;49.910;6.792;2023-02-03T03:19:49;99888.19;;;7.66;100.00
26807;BME280;14380;49.910;6.792;2023-02-03T03:22:21;99906.53;;;7.68;100.00
26807;BME280;14380;49.910;6.792;2023-02-03T03:24:54;99888.78;;;7.78;100.00
26807;BME280;14380;49.910;6.792;2023-02-03T03:27:27;99878.09;;;7.49;100.00
26807;BME280;14380;49.910;6.792;2023-02-03T03:29:57;99881.25;;;7.64;100.00
26807;BME280;14380;49.910;6.792;2023-02-03T03:32:25;99880.81;;;7.46;100.00
26807;BME280;14380;49.910;6.792;2023-02-03T03:34:53;99886.53;;;7.62;100.00
26807;BME280;14380;49.910;6.792;2023-02-03T03:37:28;99886.53;;;7.62;100.00
26807;BME280;14380;49.910;6.792;2023-02-03T03:39:59;99903.84;;;7.71;100.00
26807;BME280;14380;49.910;6.792;2023-02-03T03:42:28;99895.25;;;7.64;100.00
26807;BME280;14380;49.910;6.792;2023-02-03T03:45:01;99904.44;;;7.82;100.00
26807;BME280;14380;49.910;6.792;2023-02-03T03:47:33;99907.44;;;7.68;100.00
26807;BME280;14380;49.910;6.792;2023-02-03T03:50:01;99911.59;;;7.77;100.00
26807;BME280;14380;49.910;6.792;2023-02-03T03:52:32;99929.78;;;7.85;100.00
26807;BME280;14380;49.910;6.792;2023-02-03T03:55:02;99943.84;;;7.84;100.00
26807;BME280;14380;49.910;6.792;2023-02-03T03:57:34;99948.53;;;7.71;100.00
26807;BME280;14380;49.910;6.792;2023-02-03T04:00:04;99945.13;;;7.67;100.00
26807;BME280;14380;49.910;6.792;2023-02-03T04:02:35;99946.59;;;7.78;100.00
26807;BME280;14380;49.910;6.792;2023-02-03T04:05:05;99931.22;;;7.62;100.00
26807;BME280;14380;49.910;6.792;2023-02-03T04:07:41;99932.81;;;7.69;100.00
26807;BME280;14380;49.910;6.792;2023-02-03T04:10:15;99914.91;;;7.49;100.00
26807;BME280;14380;49.910;6.792;2023-02-03T04:12:43;99918.09;;;7.61;100.00
26807;BME280;14380;49.910;6.792;2023-02-03T04:15:09;99911.25;;;7.55;100.00
26807;BME280;14380;49.910;6.792;2023-02-03T04:17:36;99931.31;;;7.59;100.00
26807;BME280;14380;49.910;6.792;2023-02-03T04:20:03;99940.28;;;7.50;100.00
26807;BME280;14380;49.910;6.792;2023-02-03T04:22:29;99958.44;;;7.59;100.00
26807;BME280;14380;49.910;6.792;2023-02-03T04:24:57;99946.88;;;7.67;100.00
26807;BME280;14380;49.910;6.792;2023-02-03T04:27:24;99947.34;;;7.83;100.00
26807;BME280;14380;49.910;6.792;2023-02-03T04:29:50;99958.69;;;7.85;100.00
26807;BME280;14380;49.910;6.792;2023-02-03T04:32:17;99948.19;;;7.85;100.00
26807;BME280;14380;49.910;6.792;2023-02-03T04:34:44;99942.72;;;7.58;100.00
26807;BME280;14380;49.910;6.792;2023-02-03T04:37:10;99927.91;;;7.54;100.00
26807;BME280;14380;49.910;6.792;2023-02-03T04:39:37;99927.66;;;7.65;100.00
26807;BME280;14380;49.910;6.792;2023-02-03T04:42:05;99928.66;;;7.59;100.00
26807;BME280;14380;49.910;6.792;2023-02-03T04:44:31;99927.78;;;7.58;100.00
26807;BME280;14380;49.910;6.792;2023-02-03T04:46:58;99929.72;;;7.52;100.00
26807;BME280;14380;49.910;6.792;2023-02-03T04:49:24;99928.03;;;7.49;100.00
26807;BME280;14380;49.910;6.792;2023-02-03T04:51:51;99929.31;;;7.69;100.00
26807;BME280;14380;49.910;6.792;2023-02-03T04:54:17;99925.63;;;7.38;100.00
26807;BME280;14380;49.910;6.792;2023-02-03T04:56:44;99922.44;;;7.63;100.00
26807;BME280;14380;49.910;6.792;2023-02-03T04:59:12;99919.31;;;7.47;100.00
26807;BME280;14380;49.910;6.792;2023-02-03T05:01:38;99918.91;;;7.64;100.00
26807;BME280;14380;49.910;6.792;2023-02-03T05:04:05;99904.88;;;7.64;100.00
26807;BME280;14380;49.910;6.792;2023-02-03T05:06:32;99907.75;;;7.54;100.00
26807;BME280;14380;49.910;6.792;2023-02-03T05:08:59;99899.06;;;7.51;100.00
26807;BME280;14380;49.910;6.792;2023-02-03T05:11:25;99890.44;;;7.46;100.00
26807;BME280;14380;49.910;6.792;2023-02-03T05:13:52;99895.41;;;7.58;100.00
26807;BME280;14380;49.910;6.792;2023-02-03T05:16:20;99895.78;;;7.42;100.00
26807;BME280;14380;49.910;6.792;2023-02-03T05:18:47;99897.09;;;7.61;100.00
26807;BME280;14380;49.910;6.792;2023-02-03T05:21:14;99879.94;;;7.46;100.00
26807;BME280;14380;49.910;6.792;2023-02-03T05:23:40;99889.47;;;7.50;100.00
26807;BME280;14380;49.910;6.792;2023-02-03T05:26:07;99878.75;;;7.57;100.00
26807;BME280;14380;49.910;6.792;2023-02-03T05:28:33;99890.38;;;7.49;100.00
26807;BME280;14380;49.910;6.792;2023-02-03T05:31:01;99891.06;;;7.57;100.00
26807;BME280;14380;49.910;6.792;2023-02-03T05:33:29;99892.69;;;7.61;100.00
26807;BME280;14380;49.910;6.792;2023-02-03T05:35:56;99891.56;;;7.71;100.00
26807;BME280;14380;49.910;6.792;2023-02-03T05:38:22;99891.97;;;7.91;100.00
26807;BME280;14380;49.910;6.792;2023-02-03T05:40:50;99901.97;;;7.40;100.00
26807;BME280;14380;49.910;6.792;2023-02-03T05:43:35;99906.53;;;7.69;100.00
26807;BME280;14380;49.910;6.792;2023-02-03T05:46:02;99916.72;;;7.82;100.00
26807;BME280;14380;49.910;6.792;2023-02-03T05:48:31;99924.72;;;7.77;100.00
26807;BME280;14380;49.910;6.792;2023-02-03T05:50:58;99938.66;;;7.81;100.00
26807;BME280;14380;49.910;6.792;2023-02-03T05:53:25;99927.88;;;7.92;100.00
26807;BME280;14380;49.910;6.792;2023-02-03T05:55:52;99924.03;;;7.70;100.00
26807;BME280;14380;49.910;6.792;2023-02-03T05:58:18;99914.16;;;7.79;100.00
26807;BME280;14380;49.910;6.792;2023-02-03T06:00:45;99914.69;;;7.57;100.00
26807;BME280;14380;49.910;6.792;2023-02-03T06:03:12;99912.22;;;7.51;100.00
26807;BME280;14380;49.910;6.792;2023-02-03T06:05:39;99911.03;;;7.64;100.00
26807;BME280;14380;49.910;6.792;2023-02-03T06:08:07;99902.88;;;7.73;100.00
26807;BME280;14380;49.910;6.792;2023-02-03T06:10:34;99895.44;;;7.56;100.00
26807;BME280;14380;49.910;6.792;2023-02-03T06:13:07;99884.22;;;7.50;100.00
26807;BME280;14380;49.910;6.792;2023-02-03T06:15:34;99882.94;;;7.66;100.00
26807;BME280;14380;49.910;6.792;2023-02-03T06:18:00;99875.63;;;7.78;100.00
26807;BME280;14380;49.910;6.792;2023-02-03T06:20:27;99868.81;;;7.70;100.00
26807;BME280;14380;49.910;6.792;2023-02-03T06:22:54;99881.00;;;7.73;100.00
26807;BME280;14380;49.910;6.792;2023-02-03T06:25:21;99878.75;;;7.57;100.00
26807;BME280;14380;49.910;6.792;2023-02-03T06:27:48;99869.53;;;7.77;100.00
26807;BME280;14380;49.910;6.792;2023-02-03T06:30:15;99884.34;;;7.80;100.00
26807;BME280;14380;49.910;6.792;2023-02-03T06:32:41;99879.81;;;7.85;100.00
26807;BME280;14380;49.910;6.792;2023-02-03T06:35:08;99882.25;;;7.58;100.00
26807;BME280;14380;49.910;6.792;2023-02-03T06:37:34;99876.53;;;7.77;100.00
26807;BME280;14380;49.910;6.792;2023-02-03T06:40:04;99873.78;;;7.81;100.00
26807;BME280;14380;49.910;6.792;2023-02-03T06:42:30;99870.63;;;7.68;100.00
26807;BME280;14380;49.910;6.792;2023-02-03T06:44:57;99881.09;;;7.70;100.00
26807;BME280;14380;49.910;6.792;2023-02-03T06:47:23;99890.56;;;7.76;100.00
26807;BME280;14380;49.910;6.792;2023-02-03T06:49:50;99902.72;;;7.81;100.00
26807;BME280;14380;49.910;6.792;2023-02-03T06:52:17;99911.34;;;7.86;100.00
26807;BME280;14380;49.910;6.792;2023-02-03T06:54:43;99908.56;;;7.93;100.00
26807;BME280;14380;49.910;6.792;2023-02-03T06:57:11;99909.31;;;7.63;100.00
26807;BME280;14380;49.910;6.792;2023-02-03T06:59:37;99922.03;;;7.80;100.00
26807;BME280;14380;49.910;6.792;2023-02-03T07:02:04;99921.06;;;7.83;100.00
26807;BME280;14380;49.910;6.792;2023-02-03T07:04:30;99925.66;;;7.74;100.00
26807;BME280;14380;49.910;6.792;2023-02-03T07:06:57;99928.66;;;7.95;100.00
26807;BME280;14380;49.910;6.792;2023-02-03T07:09:24;99947.22;;;7.89;100.00
26807;BME280;14380;49.910;6.792;2023-02-03T07:11:50;99938.13;;;8.01;100.00
26807;BME280;14380;49.910;6.792;2023-02-03T07:14:18;99940.28;;;7.86;100.00
26807;BME280;14380;49.910;6.792;2023-02-03T07:16:44;99949.97;;;7.84;100.00
26807;BME280;14380;49.910;6.792;2023-02-03T07:19:11;99953.16;;;7.97;100.00
26807;BME280;14380;49.910;6.792;2023-02-03T07:21:38;99960.00;;;8.03;100.00
26807;BME280;14380;49.910;6.792;2023-02-03T07:24:05;99959.16;;;8.02;100.00
26807;BME280;14380;49.910;6.792;2023-02-03T07:26:31;99971.59;;;7.96;100.00
26807;BME280;14380;49.910;6.792;2023-02-03T07:28:58;99963.19;;;7.81;100.00
26807;BME280;14380;49.910;6.792;2023-02-03T07:31:26;99962.44;;;7.76;100.00
26807;BME280;14380;49.910;6.792;2023-02-03T07:33:53;99958.56;;;7.91;100.00
26807;BME280;14380;49.910;6.792;2023-02-03T07:36:19;99956.97;;;7.85;100.00
26807;BME280;14380;49.910;6.792;2023-02-03T07:38:46;99962.72;;;8.00;100.00
26807;BME280;14380;49.910;6.792;2023-02-03T07:41:12;99960.91;;;8.02;100.00
26807;BME280;14380;49.910;6.792;2023-02-03T07:43:39;99943.38;;;8.02;100.00
26807;BME280;14380;49.910;6.792;2023-02-03T07:46:05;99943.06;;;7.79;100.00
26807;BME280;14380;49.910;6.792;2023-02-03T07:48:33;99946.03;;;8.01;100.00
26807;BME280;14380;49.910;6.792;2023-02-03T07:51:00;99938.81;;;8.09;100.00
26807;BME280;14380;49.910;6.792;2023-02-03T07:53:26;99941.75;;;7.61;100.00
26807;BME280;14380;49.910;6.792;2023-02-03T07:55:53;99941.59;;;8.03;100.00
26807;BME280;14380;49.910;6.792;2023-02-03T07:58:19;99952.84;;;8.10;100.00
26807;BME280;14380;49.910;6.792;2023-02-03T08:00:46;99957.06;;;8.15;100.00
26807;BME280;14380;49.910;6.792;2023-02-03T08:03:12;99961.81;;;8.01;100.00
26807;BME280;14380;49.910;6.792;2023-02-03T08:05:40;99969.47;;;8.10;100.00
26807;BME280;14380;49.910;6.792;2023-02-03T08:08:07;99953.91;;;8.01;100.00
26807;BME280;14380;49.910;6.792;2023-02-03T08:10:33;99938.72;;;8.14;100.00
26807;BME280;14380;49.910;6.792;2023-02-03T08:13:00;99950.53;;;7.97;100.00
26807;BME280;14380;49.910;6.792;2023-02-03T08:15:26;99954.50;;;8.14;100.00
26807;BME280;14380;49.910;6.792;2023-02-03T08:17:53;99958.66;;;8.21;100.00
26807;BME280;14380;49.910;6.792;2023-02-03T08:20:19;99956.31;;;8.10;100.00
26807;BME280;14380;49.910;6.792;2023-02-03T08:22:48;99958.59;;;8.24;100.00
26807;BME280;14380;49.910;6.792;2023-02-03T08:25:15;99963.59;;;8.35;100.00
26807;BME280;14380;49.910;6.792;2023-02-03T08:27:41;99969.19;;;8.21;100.00
26807;BME280;14380;49.910;6.792;2023-02-03T08:30:11;99975.28;;;8.23;100.00
26807;BME280;14380;49.910;6.792;2023-02-03T08:32:38;99968.50;;;8.14;100.00
26807;BME280;14380;49.910;6.792;2023-02-03T08:35:05;99965.94;;;8.44;100.00
26807;BME280;14380;49.910;6.792;2023-02-03T08:37:32;99956.84;;;8.25;100.00
26807;BME280;14380;49.910;6.792;2023-02-03T08:40:00;99966.63;;;8.19;100.00
26807;BME280;14380;49.910;6.792;2023-02-03T08:42:26;99961.44;;;8.51;100.00
26807;BME280;14380;49.910;6.792;2023-02-03T08:44:53;99968.59;;;8.44;100.00
26807;BME280;14380;49.910;6.792;2023-02-03T08:47:20;99967.50;;;8.18;100.00
26807;BME280;14380;49.910;6.792;2023-02-03T08:49:46;99970.81;;;8.27;100.00
26807;BME280;14380;49.910;6.792;2023-02-03T08:52:13;99969.03;;;8.27;100.00
26807;BME280;14380;49.910;6.792;2023-02-03T08:54:40;99958.31;;;8.35;100.00
26807;BME280;14380;49.910;6.792;2023-02-03T08:57:09;99970.84;;;8.25;100.00
26807;BME280;14380;49.910;6.792;2023-02-03T08:59:37;99967.06;;;8.36;100.00
26807;BME280;14380;49.910;6.792;2023-02-03T09:02:05;99967.13;;;8.34;100.00
26807;BME280;14380;49.910;6.792;2023-02-03T09:04:34;99972.19;;;8.40;100.00
26807;BME280;14380;49.910;6.792;2023-02-03T09:07:01;99987.53;;;8.59;100.00
26807;BME280;14380;49.910;6.792;2023-02-03T09:09:29;99982.53;;;8.50;100.00
26807;BME280;14380;49.910;6.792;2023-02-03T09:11:55;99978.56;;;8.66;100.00
26807;BME280;14380;49.910;6.792;2023-02-03T09:14:27;99980.72;;;8.52;100.00
26807;BME280;14380;49.910;6.792;2023-02-03T09:16:54;99986.59;;;8.27;100.00
26807;BME280;14380;49.910;6.792;2023-02-03T09:19:21;99994.22;;;8.71;100.00
26807;BME280;14380;49.910;6.792;2023-02-03T09:21:47;99988.50;;;8.56;100.00
26807;BME280;14380;49.910;6.792;2023-02-03T09:24:14;99984.97;;;8.57;100.00
26807;BME280;14380;49.910;6.792;2023-02-03T09:26:41;99983.13;;;8.91;100.00
26807;BME280;14380;49.910;6.792;2023-02-03T09:29:08;99983.25;;;8.55;100.00
26807;BME280;14380;49.910;6.792;2023-02-03T09:31:35;99982.03;;;8.68;100.00
26807;BME280;14380;49.910;6.792;2023-02-03T09:34:02;99968.97;;;8.63;100.00
26807;BME280;14380;49.910;6.792;2023-02-03T09:36:28;99962.69;;;8.69;100.00
26807;BME280;14380;49.910;6.792;2023-02-03T09:38:55;99962.69;;;9.01;100.00
26807;BME280;14380;49.910;6.792;2023-02-03T09:41:35;99986.06;;;8.82;100.00
26807;BME280;14380;49.910;6.792;2023-02-03T09:44:11;99964.09;;;8.81;100.00
26807;BME280;14380;49.910;6.792;2023-02-03T09:46:46;99958.81;;;9.13;100.00
26807;BME280;14380;49.910;6.792;2023-02-03T09:49:17;99955.97;;;8.89;100.00
26807;BME280;14380;49.910;6.792;2023-02-03T09:51:50;99947.06;;;8.95;100.00
26807;BME280;14380;49.910;6.792;2023-02-03T09:54:20;99945.25;;;8.65;100.00
26807;BME280;14380;49.910;6.792;2023-02-03T09:56:49;99940.16;;;8.90;100.00
26807;BME280;14380;49.910;6.792;2023-02-03T09:59:20;99940.50;;;9.08;100.00
26807;BME280;14380;49.910;6.792;2023-02-03T10:01:53;99939.81;;;8.71;100.00
26807;BME280;14380;49.910;6.792;2023-02-03T10:04:27;99949.44;;;8.72;100.00
26807;BME280;14380;49.910;6.792;2023-02-03T10:07:03;99950.84;;;8.84;100.00
26807;BME280;14380;49.910;6.792;2023-02-03T10:09:42;99945.94;;;8.72;100.00
26807;BME280;14380;49.910;6.792;2023-02-03T10:12:24;99950.41;;;9.00;100.00
26807;BME280;14380;49.910;6.792;2023-02-03T10:15:19;99952.03;;;9.34;100.00
26807;BME280;14380;49.910;6.792;2023-02-03T10:17:52;99951.47;;;9.22;100.00
26807;BME280;14380;49.910;6.792;2023-02-03T10:20:24;99950.03;;;9.12;100.00
26807;BME280;14380;49.910;6.792;2023-02-03T10:22:54;99949.81;;;9.20;100.00
26807;BME280;14380;49.910;6.792;2023-02-03T10:25:29;99949.97;;;8.84;100.00
26807;BME280;14380;49.910;6.792;2023-02-03T10:27:59;99949.78;;;8.91;100.00
26807;BME280;14380;49.910;6.792;2023-02-03T10:30:30;99942.81;;;9.19;100.00
26807;BME280;14380;49.910;6.792;2023-02-03T10:33:10;99933.22;;;9.16;100.00
26807;BME280;14380;49.910;6.792;2023-02-03T10:35:48;99925.31;;;9.16;100.00
26807;BME280;14380;49.910;6.792;2023-02-03T10:38:22;99925.41;;;9.13;100.00
26807;BME280;14380;49.910;6.792;2023-02-03T10:40:49;99923.66;;;9.14;100.00
26807;BME280;14380;49.910;6.792;2023-02-03T10:43:16;99931.19;;;9.26;100.00
26807;BME280;14380;49.910;6.792;2023-02-03T10:46:00;99938.13;;;9.29;100.00
26807;BME280;14380;49.910;6.792;2023-02-03T10:48:28;99934.41;;;9.36;100.00
26807;BME280;14380;49.910;6.792;2023-02-03T10:50:55;99929.44;;;9.53;100.00
26807;BME280;14380;49.910;6.792;2023-02-03T10:53:24;99940.28;;;9.44;100.00
26807;BME280;14380;49.910;6.792;2023-02-03T10:56:00;99922.69;;;9.16;100.00
26807;BME280;14380;49.910;6.792;2023-02-03T10:58:29;99931.59;;;9.12;100.00
26807;BME280;14380;49.910;6.792;2023-02-03T11:01:04;99923.38;;;9.23;100.00
26807;BME280;14380;49.910;6.792;2023-02-03T11:03:32;99918.19;;;9.48;100.00
26807;BME280;14380;49.910;6.792;2023-02-03T11:06:04;99931.25;;;9.51;100.00
26807;BME280;14380;49.910;6.792;2023-02-03T11:08:32;99924.13;;;9.27;100.00
26807;BME280;14380;49.910;6.792;2023-02-03T11:11:04;99935.34;;;9.33;100.00
26807;BME280;14380;49.910;6.792;2023-02-03T11:13:30;99933.00;;;9.24;100.00
26807;BME280;14380;49.910;6.792;2023-02-03T11:15:59;99936.16;;;9.35;100.00
26807;BME280;14380;49.910;6.792;2023-02-03T11:18:35;99939.50;;;9.12;100.00
26807;BME280;14380;49.910;6.792;2023-02-03T11:21:08;99928.94;;;9.42;100.00
26807;BME280;14380;49.910;6.792;2023-02-03T11:23:37;99921.97;;;9.11;100.00
26807;BME280;14380;49.910;6.792;2023-02-03T11:26:11;99922.03;;;9.38;100.00
26807;BME280;14380;49.910;6.792;2023-02-03T11:28:41;99935.03;;;9.14;100.00
26807;BME280;14380;49.910;6.792;2023-02-03T11:31:15;99932.91;;;9.27;100.00
26807;BME280;14380;49.910;6.792;2023-02-03T11:33:47;99926.66;;;9.30;100.00
26807;BME280;14380;49.910;6.792;2023-02-03T11:36:16;99922.75;;;9.15;100.00
26807;BME280;14380;49.910;6.792;2023-02-03T11:38:42;99930.56;;;9.18;100.00
26807;BME280;14380;49.910;6.792;2023-02-03T11:41:15;99930.78;;;9.10;100.00
26807;BME280;14380;49.910;6.792;2023-02-03T11:43:42;99939.66;;;9.36;100.00
26807;BME280;14380;49.910;6.792;2023-02-03T11:46:09;99940.91;;;9.24;100.00
26807;BME280;14380;49.910;6.792;2023-02-03T11:48:37;99945.56;;;9.44;100.00
26807;BME280;14380;49.910;6.792;2023-02-03T11:51:16;99956.09;;;9.44;100.00
26807;BME280;14380;49.910;6.792;2023-02-03T11:53:58;99950.34;;;9.60;100.00
26807;BME280;14380;49.910;6.792;2023-02-03T11:56:39;99948.84;;;9.51;100.00
26807;BME280;14380;49.910;6.792;2023-02-03T11:59:26;99942.94;;;9.14;100.00
26807;BME280;14380;49.910;6.792;2023-02-03T12:02:18;99929.78;;;9.43;100.00
26807;BME280;14380;49.910;6.792;2023-02-03T12:05:05;99924.69;;;9.36;100.00
26807;BME280;14380;49.910;6.792;2023-02-03T12:07:48;99916.50;;;9.17;100.00
26807;BME280;14380;49.910;6.792;2023-02-03T12:10:27;99927.59;;;9.56;100.00
26807;BME280;14380;49.910;6.792;2023-02-03T12:13:01;99929.47;;;9.25;100.00
26807;BME280;14380;49.910;6.792;2023-02-03T12:15:43;99932.75;;;9.32;100.00
26807;BME280;14380;49.910;6.792;2023-02-03T12:18:27;99928.78;;;9.18;100.00
26807;BME280;14380;49.910;6.792;2023-02-03T12:21:05;99925.81;;;9.01;100.00
26807;BME280;14380;49.910;6.792;2023-02-03T12:23:44;99919.41;;;9.08;100.00
26807;BME280;14380;49.910;6.792;2023-02-03T12:26:18;99916.66;;;9.13;100.00
26807;BME280;14380;49.910;6.792;2023-02-03T12:28:55;99914.34;;;9.02;100.00
26807;BME280;14380;49.910;6.792;2023-02-03T12:31:31;99907.22;;;9.05;100.00
26807;BME280;14380;49.910;6.792;2023-02-03T12:34:07;99907.78;;;9.44;100.00
26807;BME280;14380;49.910;6.792;2023-02-03T12:36:39;99898.53;;;9.30;100.00
26807;BME280;14380;49.910;6.792;2023-02-03T12:39:13;99904.25;;;9.16;100.00
26807;BME280;14380;49.910;6.792;2023-02-03T12:41:47;99894.78;;;9.09;100.00
26807;BME280;14380;49.910;6.792;2023-02-03T12:44:19;99888.63;;;9.38;100.00
26807;BME280;14380;49.910;6.792;2023-02-03T12:46:50;99892.06;;;9.41;100.00
26807;BME280;14380;49.910;6.792;2023-02-03T12:49:29;99896.69;;;9.34;100.00
26807;BME280;14380;49.910;6.792;2023-02-03T12:52:00;99904.78;;;9.28;100.00
26807;BME280;14380;49.910;6.792;2023-02-03T12:54:36;99915.50;;;9.21;100.00
26807;BME280;14380;49.910;6.792;2023-02-03T12:57:14;99907.38;;;9.01;100.00
26807;BME280;14380;49.910;6.792;2023-02-03T12:59:58;99912.94;;;9.20;100.00
26807;BME280;14380;49.910;6.792;2023-02-03T13:02:33;99917.38;;;9.46;100.00
26807;BME280;14380;49.910;6.792;2023-02-03T13:05:09;99910.31;;;9.47;100.00
26807;BME280;14380;49.910;6.792;2023-02-03T13:07:46;99895.41;;;9.46;100.00
26807;BME280;14380;49.910;6.792;2023-02-03T13:10:20;99897.88;;;9.23;100.00
26807;BME280;14380;49.910;6.792;2023-02-03T13:12:50;99891.84;;;9.48;100.00
26807;BME280;14380;49.910;6.792;2023-02-03T13:15:25;99906.06;;;9.14;100.00
26807;BME280;14380;49.910;6.792;2023-02-03T13:17:55;99898.13;;;9.44;100.00
26807;BME280;14380;49.910;6.792;2023-02-03T13:20:25;99883.88;;;9.50;100.00